createdAt,value
2023-04-12T00:00:57.981Z,247.87
2023-04-12T00:01:58.016Z,248.46
2023-04-12T00:02:58.075Z,248.46
2023-04-12T00:03:58.434Z,247.39
2023-04-12T00:04:58.150Z,247.69
2023-04-12T00:05:58.148Z,248.87
2023-04-12T00:06:58.178Z,247.77
2023-04-12T00:07:58.218Z,248.16
2023-04-12T00:08:58.255Z,246.92
2023-04-12T00:09:58.290Z,247.95
2023-04-12T00:10:58.298Z,246.63
2023-04-12T00:11:58.399Z,245.83
2023-04-12T00:12:58.460Z,244.47
2023-04-12T00:13:58.641Z,245.21
2023-04-12T00:14:58.515Z,247.53
2023-04-12T00:15:58.569Z,245.58
2023-04-12T00:16:58.593Z,245.83
2023-04-12T00:17:58.676Z,248.47
2023-04-12T00:18:58.636Z,248.76
2023-04-12T00:19:58.686Z,247.16
2023-04-12T00:20:58.711Z,246.48
2023-04-12T00:21:58.767Z,247.71
2023-04-12T00:22:58.807Z,245.76
2023-04-12T00:23:59.083Z,246.03
2023-04-12T00:24:58.897Z,247.06
2023-04-12T00:25:58.894Z,247.92
2023-04-12T00:26:58.937Z,246.53
2023-04-12T00:27:59.127Z,248.63
2023-04-12T00:28:59.020Z,246.46
2023-04-12T00:29:59.027Z,248.54
2023-04-12T00:30:59.139Z,247.50
2023-04-12T00:31:59.151Z,248.27
2023-04-12T00:32:59.208Z,246.70
2023-04-12T00:33:59.285Z,246.49
2023-04-12T00:34:59.295Z,247.84
2023-04-12T00:35:59.302Z,246.90
2023-04-12T00:36:59.377Z,244.42
2023-04-12T00:37:59.345Z,245.47
2023-04-12T00:38:59.396Z,246.77
2023-04-12T00:39:59.393Z,246.69
2023-04-12T00:40:59.463Z,246.77
2023-04-12T00:41:59.500Z,246.48
2023-04-12T00:42:59.521Z,246.37
2023-04-12T00:43:59.849Z,244.88
2023-04-12T00:44:59.594Z,247.57
2023-04-12T00:45:59.657Z,247.08
2023-04-12T00:46:59.682Z,246.45
2023-04-12T00:47:59.816Z,247.52
2023-04-12T00:48:59.773Z,245.60
2023-04-12T00:49:59.782Z,246.37
2023-04-12T00:50:59.844Z,247.17
2023-04-12T00:51:59.899Z,248.57
2023-04-12T00:52:59.917Z,247.79
2023-04-12T00:53:59.957Z,246.70
2023-04-12T00:54:59.938Z,245.39
2023-04-12T00:56:00.031Z,245.85
2023-04-12T00:57:00.042Z,247.19
2023-04-12T00:58:00.132Z,245.17
2023-04-12T00:59:00.163Z,246.03
2023-04-12T01:00:00.139Z,246.23
2023-04-12T01:01:00.308Z,246.64
2023-04-12T01:02:00.337Z,245.47
2023-04-12T01:03:00.426Z,247.12
2023-04-12T01:04:00.335Z,248.17
2023-04-12T01:05:00.354Z,246.09
2023-04-12T01:06:00.358Z,245.92
2023-04-12T01:07:00.403Z,245.68
2023-04-12T01:08:00.412Z,246.83
2023-04-12T01:09:00.526Z,245.76
2023-04-12T01:10:00.538Z,244.66
2023-04-12T01:11:00.532Z,244.56
2023-04-12T01:12:00.587Z,247.38
2023-04-12T01:13:00.653Z,245.38
2023-04-12T01:14:00.638Z,246.52
2023-04-12T01:15:00.686Z,246.74
2023-04-12T01:16:00.817Z,247.01
2023-04-12T01:17:00.783Z,247.50
2023-04-12T01:18:00.848Z,246.59
2023-04-12T01:19:00.821Z,245.98
2023-04-12T01:20:00.915Z,245.83
2023-04-12T01:21:00.906Z,244.80
2023-04-12T01:22:00.946Z,245.61
2023-04-12T01:23:00.992Z,244.81
2023-04-12T01:24:01.043Z,245.87
2023-04-12T01:25:01.050Z,245.83
2023-04-12T01:26:01.148Z,245.92
2023-04-12T01:27:01.115Z,245.73
2023-04-12T01:28:01.152Z,246.80
2023-04-12T01:29:01.191Z,245.69
2023-04-12T01:30:01.299Z,247.94
2023-04-12T01:31:01.304Z,248.12
2023-04-12T01:32:01.360Z,245.98
2023-04-12T01:33:01.415Z,244.78
2023-04-12T01:34:01.375Z,247.82
2023-04-12T01:35:01.530Z,247.70
2023-04-12T01:36:01.542Z,246.46
2023-04-12T01:37:01.515Z,247.62
2023-04-12T01:38:01.516Z,246.67
2023-04-12T01:39:01.621Z,244.40
2023-04-12T01:40:01.624Z,244.79
2023-04-12T01:41:01.685Z,245.13
2023-04-12T01:42:01.665Z,244.51
2023-04-12T01:43:01.790Z,245.80
2023-04-12T01:44:01.749Z,244.09
2023-04-12T01:45:01.744Z,245.18
2023-04-12T01:46:01.837Z,245.39
2023-04-12T01:47:01.855Z,246.74
2023-04-12T01:48:01.938Z,245.64
2023-04-12T01:49:01.932Z,244.84
2023-04-12T01:50:01.943Z,245.99
2023-04-12T01:51:02.000Z,246.46
2023-04-12T01:52:02.052Z,245.32
2023-04-12T01:53:02.061Z,246.23
2023-04-12T01:54:02.167Z,246.38
2023-04-12T01:55:02.166Z,245.58
2023-04-12T01:56:02.165Z,245.59
2023-04-12T01:57:02.240Z,246.09
2023-04-12T01:58:02.275Z,245.77
2023-04-12T01:59:02.304Z,245.76
2023-04-12T02:00:02.364Z,246.00
2023-04-12T02:01:02.472Z,245.29
2023-04-12T02:02:02.528Z,245.34
2023-04-12T02:03:02.658Z,244.51
2023-04-12T02:04:02.775Z,244.81
2023-04-12T02:05:02.554Z,244.95
2023-04-12T02:06:02.594Z,246.46
2023-04-12T02:07:02.640Z,244.27
2023-04-12T02:08:02.665Z,244.85
2023-04-12T02:09:02.712Z,245.17
2023-04-12T02:10:02.790Z,244.94
2023-04-12T02:11:02.789Z,244.84
2023-04-12T02:12:02.825Z,244.49
2023-04-12T02:13:02.865Z,243.38
2023-04-12T02:14:02.871Z,244.09
2023-04-12T02:15:02.982Z,244.14
2023-04-12T02:16:03.008Z,244.07
2023-04-12T02:17:03.047Z,245.24
2023-04-12T02:18:03.124Z,247.83
2023-04-12T02:19:03.097Z,246.21
2023-04-12T02:20:03.168Z,245.22
2023-04-12T02:21:03.181Z,244.90
2023-04-12T02:22:03.220Z,247.10
2023-04-12T02:23:03.296Z,245.55
2023-04-12T02:24:03.291Z,246.47
2023-04-12T02:25:03.338Z,245.74
2023-04-12T02:26:03.381Z,245.30
2023-04-12T02:27:03.418Z,248.49
2023-04-12T02:28:03.472Z,246.12
2023-04-12T02:29:03.505Z,244.24
2023-04-12T02:30:03.533Z,244.49
2023-04-12T02:31:03.617Z,243.99
2023-04-12T02:32:03.657Z,245.17
2023-04-12T02:33:03.674Z,246.42
2023-04-12T02:34:03.720Z,245.72
2023-04-12T02:35:03.713Z,244.11
2023-04-12T02:36:03.782Z,244.43
2023-04-12T02:37:03.835Z,245.11
2023-04-12T02:38:03.876Z,246.16
2023-04-12T02:39:03.897Z,244.30
2023-04-12T02:40:03.924Z,244.50
2023-04-12T02:41:03.970Z,245.53
2023-04-12T02:42:04.034Z,245.38
2023-04-12T02:43:04.030Z,243.99
2023-04-12T02:44:04.047Z,244.08
2023-04-12T02:45:04.096Z,244.85
2023-04-12T02:46:04.165Z,243.99
2023-04-12T02:47:04.201Z,245.02
2023-04-12T02:48:04.270Z,245.34
2023-04-12T02:49:04.285Z,245.90
2023-04-12T02:50:04.296Z,245.86
2023-04-12T02:51:04.334Z,245.66
2023-04-12T02:52:04.529Z,243.80
2023-04-12T02:53:04.470Z,245.33
2023-04-12T02:54:04.496Z,245.70
2023-04-12T02:55:04.501Z,245.05
2023-04-12T02:56:06.686Z,243.78
2023-04-12T02:57:04.594Z,245.23
2023-04-12T02:58:04.635Z,243.88
2023-04-12T02:59:04.687Z,245.58
2023-04-12T03:00:04.719Z,244.37
2023-04-12T03:01:04.912Z,245.59
2023-04-12T03:02:04.960Z,246.52
2023-04-12T03:03:05.057Z,245.40
2023-04-12T03:04:04.994Z,246.00
2023-04-12T03:05:05.026Z,244.98
2023-04-12T03:06:05.030Z,242.97
2023-04-12T03:07:05.081Z,244.77
2023-04-12T03:08:05.155Z,244.91
2023-04-12T03:09:05.210Z,245.20
2023-04-12T03:10:05.237Z,243.12
2023-04-12T03:11:05.359Z,245.18
2023-04-12T03:12:05.378Z,244.90
2023-04-12T03:13:05.425Z,243.80
2023-04-12T03:14:05.502Z,245.10
2023-04-12T03:15:05.531Z,246.16
2023-04-12T03:16:05.644Z,240.92
2023-04-12T03:17:05.642Z,244.90
2023-04-12T03:18:05.754Z,243.13
2023-04-12T03:19:05.754Z,245.95
2023-04-12T03:20:05.837Z,243.84
2023-04-12T03:21:05.867Z,242.58
2023-04-12T03:22:06.023Z,244.22
2023-04-12T03:23:05.990Z,243.88
2023-04-12T03:24:06.064Z,245.06
2023-04-12T03:25:06.192Z,243.17
2023-04-12T03:26:06.184Z,244.11
2023-04-12T03:27:06.224Z,242.92
2023-04-12T03:28:06.292Z,243.35
2023-04-12T03:29:06.335Z,246.09
2023-04-12T03:30:06.409Z,244.53
2023-04-12T03:31:06.512Z,242.93
2023-04-12T03:32:06.517Z,244.30
2023-04-12T03:33:06.600Z,244.75
2023-04-12T03:34:06.680Z,242.69
2023-04-12T03:35:06.756Z,243.53
2023-04-12T03:36:06.717Z,244.77
2023-04-12T03:37:06.871Z,244.02
2023-04-12T03:38:06.850Z,242.87
2023-04-12T03:39:06.912Z,244.52
2023-04-12T03:40:06.983Z,243.20
2023-04-12T03:41:07.026Z,245.01
2023-04-12T03:42:08.915Z,243.48
2023-04-12T03:43:07.083Z,243.52
2023-04-12T03:44:07.096Z,243.72
2023-04-12T03:45:07.116Z,243.81
2023-04-12T03:46:07.132Z,243.91
2023-04-12T03:47:07.076Z,246.32
2023-04-12T03:48:07.150Z,243.42
2023-04-12T03:49:07.091Z,245.21
2023-04-12T03:50:11.082Z,244.97
2023-04-12T03:51:08.094Z,245.04
2023-04-12T03:52:07.041Z,245.11
2023-04-12T03:53:07.010Z,245.20
2023-04-12T03:54:07.017Z,244.06
2023-04-12T03:55:07.026Z,244.05
2023-04-12T03:56:06.996Z,244.74
2023-04-12T03:57:07.008Z,243.80
2023-04-12T03:58:07.092Z,243.16
2023-04-12T03:59:07.085Z,245.08
2023-04-12T04:00:07.160Z,243.84
2023-04-12T04:01:07.206Z,245.96
2023-04-12T04:02:07.384Z,242.29
2023-04-12T04:03:07.386Z,245.15
2023-04-12T04:04:07.579Z,241.12
2023-04-12T04:05:07.517Z,241.17
2023-04-12T04:06:07.555Z,236.88
2023-04-12T04:07:07.568Z,233.96
2023-04-12T04:08:07.698Z,229.95
2023-04-12T04:09:07.695Z,226.27
2023-04-12T04:10:07.779Z,220.95
2023-04-12T04:11:09.016Z,216.55
2023-04-12T04:12:07.901Z,214.90
2023-04-12T04:13:07.926Z,210.70
2023-04-12T04:14:08.017Z,206.53
2023-04-12T04:15:08.056Z,204.80
2023-04-12T04:16:08.191Z,199.38
2023-04-12T04:17:08.193Z,198.48
2023-04-12T04:18:08.262Z,198.77
2023-04-12T04:19:08.318Z,194.83
2023-04-12T04:20:08.380Z,191.96
2023-04-12T04:21:08.502Z,186.87
2023-04-12T04:22:08.501Z,185.00
2023-04-12T04:23:08.581Z,185.72
2023-04-12T04:24:08.625Z,182.01
2023-04-12T04:25:08.696Z,180.58
2023-04-12T04:26:08.731Z,180.43
2023-04-12T04:27:08.805Z,177.36
2023-04-12T04:28:08.855Z,177.56
2023-04-12T04:29:08.932Z,173.92
2023-04-12T04:30:09.019Z,171.92
2023-04-12T04:31:09.058Z,171.54
2023-04-12T04:32:09.111Z,171.15
2023-04-12T04:33:09.214Z,170.91
2023-04-12T04:34:10.578Z,173.41
2023-04-12T04:35:09.242Z,173.88
2023-04-12T04:36:09.296Z,169.39
2023-04-12T04:37:09.263Z,169.80
2023-04-12T04:38:09.227Z,169.14
2023-04-12T04:39:09.257Z,171.60
2023-04-12T04:40:09.217Z,170.20
2023-04-12T04:41:09.231Z,172.83
2023-04-12T04:42:09.214Z,170.42
2023-04-12T04:43:09.204Z,170.55
2023-04-12T04:44:09.211Z,168.72
2023-04-12T04:45:09.169Z,170.18
2023-04-12T04:46:09.237Z,170.82
2023-04-12T04:47:09.177Z,170.51
2023-04-12T04:48:09.176Z,171.52
2023-04-12T04:49:09.130Z,169.10
2023-04-12T04:50:09.151Z,171.37
2023-04-12T04:51:09.162Z,171.39
2023-04-12T04:52:09.159Z,171.69
2023-04-12T04:53:09.123Z,173.44
2023-04-12T04:54:09.139Z,174.64
2023-04-12T04:55:11.084Z,175.38
2023-04-12T04:56:09.108Z,175.64
2023-04-12T04:57:09.150Z,173.86
2023-04-12T04:58:09.199Z,173.67
2023-04-12T04:59:09.278Z,174.49
2023-04-12T05:00:09.324Z,173.60
2023-04-12T05:01:09.411Z,174.79
2023-04-12T05:02:09.489Z,174.01
2023-04-12T05:03:09.670Z,174.97
2023-04-12T05:04:09.596Z,174.38
2023-04-12T05:05:09.632Z,177.09
2023-04-12T05:06:09.705Z,174.27
2023-04-12T05:07:09.769Z,176.77
2023-04-12T05:08:09.772Z,174.41
2023-04-12T05:09:09.916Z,175.57
2023-04-12T05:10:09.892Z,175.28
2023-04-12T05:11:10.060Z,177.18
2023-04-12T05:12:09.972Z,176.56
2023-04-12T05:13:10.069Z,174.29
2023-04-12T05:14:12.418Z,179.89
2023-04-12T05:15:11.925Z,177.85
2023-04-12T05:16:10.458Z,178.08
2023-04-12T05:17:10.387Z,178.08
2023-04-12T05:18:10.456Z,178.84
2023-04-12T05:19:10.533Z,176.00
2023-04-12T05:20:10.631Z,177.86
2023-04-12T05:21:10.652Z,179.36
2023-04-12T05:22:10.686Z,178.87
2023-04-12T05:23:10.761Z,179.46
2023-04-12T05:24:10.800Z,181.10
2023-04-12T05:25:10.946Z,181.10
2023-04-12T05:26:10.915Z,180.79
2023-04-12T05:27:11.008Z,180.61
2023-04-12T05:28:11.091Z,181.33
2023-04-12T05:29:11.124Z,179.15
2023-04-12T05:30:11.234Z,179.35
2023-04-12T05:31:11.222Z,181.46
2023-04-12T05:32:11.262Z,180.70
2023-04-12T05:33:11.332Z,177.77
2023-04-12T05:34:11.378Z,181.57
2023-04-12T05:35:11.447Z,180.95
2023-04-12T05:36:11.524Z,180.22
2023-04-12T05:37:11.549Z,182.78
2023-04-12T05:38:11.570Z,181.57
2023-04-12T05:39:11.650Z,181.10
2023-04-12T05:40:11.666Z,183.86
2023-04-12T05:41:12.005Z,183.54
2023-04-12T05:42:11.766Z,182.83
2023-04-12T05:43:11.819Z,184.91
2023-04-12T05:44:11.884Z,184.78
2023-04-12T05:45:11.856Z,183.10
2023-04-12T05:46:11.991Z,185.60
2023-04-12T05:47:11.951Z,183.88
2023-04-12T05:48:11.995Z,181.29
2023-04-12T05:49:12.025Z,184.91
2023-04-12T05:50:12.026Z,188.66
2023-04-12T05:51:12.041Z,184.77
2023-04-12T05:52:12.114Z,187.04
2023-04-12T05:53:12.107Z,183.97
2023-04-12T05:54:12.231Z,182.13
2023-04-12T05:55:12.215Z,185.07
2023-04-12T05:56:12.226Z,182.38
2023-04-12T05:57:12.216Z,184.53
2023-04-12T05:58:12.277Z,184.77
2023-04-12T05:59:12.361Z,186.18
2023-04-12T06:00:12.411Z,182.39
2023-04-12T06:01:12.393Z,185.57
2023-04-12T06:02:12.544Z,180.48
2023-04-12T06:03:12.550Z,185.64
2023-04-12T06:04:12.812Z,186.33
2023-04-12T06:05:12.614Z,183.51
2023-04-12T06:06:12.566Z,182.78
2023-04-12T06:07:13.050Z,183.90
2023-04-12T06:08:12.690Z,181.30
2023-04-12T06:09:12.712Z,180.84
2023-04-12T06:10:12.886Z,179.96
2023-04-12T06:11:12.807Z,175.74
2023-04-12T06:12:12.842Z,177.05
2023-04-12T06:13:13.010Z,175.39
2023-04-12T06:14:13.111Z,172.91
2023-04-12T06:15:13.060Z,172.02
2023-04-12T06:16:13.183Z,170.67
2023-04-12T06:17:13.150Z,170.15
2023-04-12T06:18:13.311Z,170.42
2023-04-12T06:19:13.303Z,164.90
2023-04-12T06:20:13.298Z,168.26
2023-04-12T06:21:13.463Z,165.00
2023-04-12T06:22:13.480Z,163.31
2023-04-12T06:23:13.571Z,164.14
2023-04-12T06:24:14.052Z,163.66
2023-04-12T06:25:13.710Z,159.73
2023-04-12T06:26:13.684Z,161.57
2023-04-12T06:27:13.764Z,158.85
2023-04-12T06:28:13.779Z,159.02
2023-04-12T06:29:13.833Z,156.61
2023-04-12T06:30:13.949Z,155.75
2023-04-12T06:31:13.985Z,157.47
2023-04-12T06:32:14.000Z,156.87
2023-04-12T06:33:14.027Z,156.36
2023-04-12T06:34:14.071Z,153.95
2023-04-12T06:35:14.076Z,152.77
2023-04-12T06:36:14.136Z,152.86
2023-04-12T06:37:14.145Z,152.38
2023-04-12T06:38:14.277Z,150.69
2023-04-12T06:39:14.344Z,150.40
2023-04-12T06:40:14.638Z,150.10
2023-04-12T06:41:14.232Z,152.28
2023-04-12T06:42:14.786Z,153.34
2023-04-12T06:43:14.577Z,156.18
2023-04-12T06:44:14.280Z,154.28
2023-04-12T06:45:14.301Z,155.07
2023-04-12T06:46:14.384Z,153.93
2023-04-12T06:47:14.405Z,157.37
2023-04-12T06:48:14.366Z,156.69
2023-04-12T06:49:14.405Z,159.49
2023-04-12T06:50:14.490Z,163.67
2023-04-12T06:51:15.142Z,163.94
2023-04-12T06:52:14.745Z,163.64
2023-04-12T06:53:14.687Z,164.36
2023-04-12T06:54:14.712Z,163.62
2023-04-12T06:55:14.862Z,166.84
2023-04-12T06:56:16.630Z,165.09
2023-04-12T06:57:14.839Z,166.79
2023-04-12T06:58:14.843Z,168.15
2023-04-12T06:59:14.831Z,168.73
2023-04-12T07:00:14.860Z,169.59
2023-04-12T07:01:14.879Z,171.13
2023-04-12T07:02:14.866Z,175.38
2023-04-12T07:03:14.827Z,172.93
2023-04-12T07:04:14.862Z,173.74
2023-04-12T07:05:14.796Z,176.99
2023-04-12T07:06:24.986Z,176.67
2023-04-12T07:07:15.731Z,176.98
2023-04-12T07:08:14.745Z,177.68
2023-04-12T07:09:14.807Z,178.80
2023-04-12T07:10:14.766Z,181.76
2023-04-12T07:11:21.378Z,186.35
2023-04-12T07:12:15.775Z,177.12
2023-04-12T07:13:14.731Z,178.46
2023-04-12T07:14:14.693Z,182.17
2023-04-12T07:15:14.734Z,187.38
2023-04-12T07:16:14.850Z,192.80
2023-04-12T07:17:14.683Z,193.65
2023-04-12T07:18:14.691Z,193.92
2023-04-12T07:19:15.094Z,194.57
2023-04-12T07:20:14.697Z,194.99
2023-04-12T07:21:14.811Z,194.37
2023-04-12T07:22:14.806Z,195.68
2023-04-12T07:23:15.067Z,194.32
2023-04-12T07:24:15.127Z,194.69
2023-04-12T07:25:14.928Z,196.12
2023-04-12T07:26:14.964Z,194.38
2023-04-12T07:27:15.068Z,195.76
2023-04-12T07:28:15.034Z,196.52
2023-04-12T07:29:15.058Z,193.43
2023-04-12T07:30:15.123Z,194.21
2023-04-12T07:31:15.145Z,192.67
2023-04-12T07:32:15.183Z,189.55
2023-04-12T07:33:19.500Z,189.73
2023-04-12T07:34:15.311Z,189.79
2023-04-12T07:35:15.197Z,189.63
2023-04-12T07:36:15.250Z,188.66
2023-04-12T07:37:15.236Z,186.35
2023-04-12T07:38:16.883Z,187.48
2023-04-12T07:39:15.175Z,182.72
2023-04-12T07:40:15.185Z,178.71
2023-04-12T07:41:15.162Z,179.66
2023-04-12T07:42:15.252Z,180.58
2023-04-12T07:43:15.275Z,176.70
2023-04-12T07:44:15.155Z,174.23
2023-04-12T07:45:15.121Z,174.34
2023-04-12T07:46:15.156Z,173.31
2023-04-12T07:47:15.124Z,170.53
2023-04-12T07:48:15.109Z,169.30
2023-04-12T07:49:15.198Z,165.25
2023-04-12T07:50:15.213Z,164.56
2023-04-12T07:51:15.237Z,160.26
2023-04-12T07:52:15.331Z,155.98
2023-04-12T07:53:15.427Z,152.57
2023-04-12T07:54:15.342Z,150.62
2023-04-12T07:55:15.390Z,145.13
2023-04-12T07:56:15.464Z,142.10
2023-04-12T07:57:15.471Z,135.14
2023-04-12T07:58:15.562Z,133.93
2023-04-12T07:59:15.585Z,128.76
2023-04-12T08:00:15.620Z,127.27
2023-04-12T08:01:15.667Z,127.33
2023-04-12T08:02:15.764Z,125.05
2023-04-12T08:03:15.970Z,124.34
2023-04-12T08:04:16.016Z,120.48
2023-04-12T08:05:15.802Z,115.83
2023-04-12T08:06:15.927Z,112.03
2023-04-12T08:07:15.881Z,111.76
2023-04-12T08:08:15.948Z,107.33
2023-04-12T08:09:15.977Z,107.94
2023-04-12T08:10:15.993Z,110.32
2023-04-12T08:11:16.105Z,114.21
2023-04-12T08:12:16.112Z,119.86
2023-04-12T08:13:16.188Z,118.53
2023-04-12T08:14:16.250Z,123.43
2023-04-12T08:15:16.280Z,122.01
2023-04-12T08:16:16.361Z,124.40
2023-04-12T08:17:16.398Z,128.71
2023-04-12T08:18:16.421Z,131.76
2023-04-12T08:19:16.528Z,133.03
2023-04-12T08:20:16.476Z,134.88
2023-04-12T08:21:16.568Z,141.30
2023-04-12T08:22:16.609Z,140.44
2023-04-12T08:23:16.654Z,145.34
2023-04-12T08:24:16.659Z,148.07
2023-04-12T08:25:16.704Z,148.25
2023-04-12T08:26:17.147Z,147.22
2023-04-12T08:27:16.785Z,146.49
2023-04-12T08:28:16.833Z,148.80
2023-04-12T08:29:16.905Z,150.65
2023-04-12T08:30:16.907Z,151.14
2023-04-12T08:31:16.977Z,146.39
2023-04-12T08:32:17.043Z,149.16
2023-04-12T08:33:17.043Z,149.81
2023-04-12T08:34:17.093Z,152.66
2023-04-12T08:35:17.079Z,151.67
2023-04-12T08:36:17.193Z,153.27
2023-04-12T08:37:17.206Z,155.26
2023-04-12T08:38:17.223Z,151.49
2023-04-12T08:39:17.279Z,152.90
2023-04-12T08:40:17.270Z,152.21
2023-04-12T08:41:17.323Z,152.89
2023-04-12T08:42:17.328Z,152.41
2023-04-12T08:43:17.403Z,151.66
2023-04-12T08:44:17.405Z,152.14
2023-04-12T08:45:17.471Z,152.17
2023-04-12T08:46:17.681Z,154.62
2023-04-12T08:47:17.555Z,154.75
2023-04-12T08:48:17.546Z,150.68
2023-04-12T08:49:17.589Z,153.22
2023-04-12T08:50:17.585Z,156.11
2023-04-12T08:51:17.672Z,154.09
2023-04-12T08:52:17.664Z,155.45
2023-04-12T08:53:17.700Z,159.52
2023-04-12T08:54:17.744Z,156.46
2023-04-12T08:55:17.723Z,158.21
2023-04-12T08:56:17.803Z,156.71
2023-04-12T08:57:17.820Z,159.63
2023-04-12T08:58:17.856Z,159.23
2023-04-12T08:59:18.688Z,161.23
2023-04-12T09:00:17.968Z,159.07
2023-04-12T09:01:17.960Z,159.84
2023-04-12T09:02:18.084Z,160.17
2023-04-12T09:03:18.359Z,160.61
2023-04-12T09:04:18.430Z,161.24
2023-04-12T09:05:18.080Z,162.15
2023-04-12T09:06:18.071Z,160.33
2023-04-12T09:07:18.112Z,164.29
2023-04-12T09:08:18.189Z,163.11
2023-04-12T09:09:18.658Z,162.96
2023-04-12T09:10:18.204Z,165.04
2023-04-12T09:11:18.282Z,165.43
2023-04-12T09:12:18.291Z,164.71
2023-04-12T09:13:18.323Z,161.38
2023-04-12T09:14:18.394Z,163.54
2023-04-12T09:15:18.392Z,167.70
2023-04-12T09:16:18.499Z,164.32
2023-04-12T09:17:18.453Z,164.61
2023-04-12T09:18:18.596Z,162.85
2023-04-12T09:19:18.611Z,163.92
2023-04-12T09:20:18.663Z,165.77
2023-04-12T09:21:18.616Z,167.95
2023-04-12T09:22:18.608Z,169.46
2023-04-12T09:23:18.666Z,165.08
2023-04-12T09:24:18.706Z,168.09
2023-04-12T09:25:18.717Z,169.30
2023-04-12T09:26:18.732Z,168.89
2023-04-12T09:27:18.749Z,164.97
2023-04-12T09:28:18.743Z,171.38
2023-04-12T09:29:18.793Z,168.33
2023-04-12T09:30:18.880Z,167.80
2023-04-12T09:31:18.815Z,175.05
2023-04-12T09:32:18.884Z,174.25
2023-04-12T09:33:18.884Z,169.82
2023-04-12T09:34:18.890Z,173.28
2023-04-12T09:35:18.968Z,171.78
2023-04-12T09:36:18.946Z,173.84
2023-04-12T09:37:18.965Z,178.44
2023-04-12T09:38:18.963Z,176.32
2023-04-12T09:39:19.130Z,180.48
2023-04-12T09:40:18.978Z,178.06
2023-04-12T09:41:21.240Z,178.36
2023-04-12T09:42:33.450Z,181.67
2023-04-12T09:43:20.157Z,181.88
2023-04-12T09:44:18.953Z,181.74
2023-04-12T09:45:18.911Z,182.76
2023-04-12T09:46:19.007Z,182.65
2023-04-12T09:47:18.995Z,181.68
2023-04-12T09:48:18.922Z,180.23
2023-04-12T09:49:18.942Z,182.20
2023-04-12T09:50:18.916Z,183.65
2023-04-12T09:51:18.896Z,181.14
2023-04-12T09:52:18.876Z,183.21
2023-04-12T09:53:18.901Z,184.96
2023-04-12T09:54:18.915Z,185.30
2023-04-12T09:55:18.843Z,186.00
2023-04-12T09:56:18.884Z,187.65
2023-04-12T09:57:18.878Z,180.12
2023-04-12T09:58:18.830Z,191.72
2023-04-12T09:59:20.630Z,185.25
2023-04-12T10:00:18.893Z,187.48
2023-04-12T10:01:18.914Z,181.60
2023-04-12T10:02:18.987Z,188.15
2023-04-12T10:03:19.026Z,188.06
2023-04-12T10:04:18.891Z,189.33
2023-04-12T10:05:18.960Z,187.83
2023-04-12T10:06:18.796Z,188.35
2023-04-12T10:07:18.919Z,190.62
2023-04-12T10:08:18.823Z,192.04
2023-04-12T10:09:19.119Z,187.22
2023-04-12T10:10:18.808Z,192.33
2023-04-12T10:11:18.758Z,193.15
2023-04-12T10:12:18.781Z,193.15
2023-04-12T10:13:18.748Z,193.04
2023-04-12T10:14:18.733Z,191.47
2023-04-12T10:15:18.931Z,190.95
2023-04-12T10:16:18.796Z,189.91
2023-04-12T10:17:18.762Z,190.54
2023-04-12T10:18:18.984Z,187.70
2023-04-12T10:19:18.903Z,191.82
2023-04-12T10:20:18.891Z,191.23
2023-04-12T10:21:18.997Z,184.38
2023-04-12T10:22:18.990Z,190.19
2023-04-12T10:23:19.164Z,192.13
2023-04-12T10:24:19.175Z,187.27
2023-04-12T10:25:19.204Z,184.31
2023-04-12T10:26:19.236Z,194.73
2023-04-12T10:27:19.319Z,191.16
2023-04-12T10:28:19.380Z,192.24
2023-04-12T10:29:19.429Z,184.85
2023-04-12T10:30:19.502Z,188.33
2023-04-12T10:31:19.562Z,187.71
2023-04-12T10:32:19.577Z,191.35
2023-04-12T10:33:19.797Z,190.39
2023-04-12T10:34:19.734Z,196.25
2023-04-12T10:35:19.842Z,194.27
2023-04-12T10:36:19.877Z,189.14
2023-04-12T10:37:19.937Z,194.85
2023-04-12T10:38:19.998Z,189.55
2023-04-12T10:39:20.061Z,186.64
2023-04-12T10:40:20.098Z,191.19
2023-04-12T10:41:20.178Z,188.59
2023-04-12T10:42:20.210Z,190.17
2023-04-12T10:43:20.262Z,194.63
2023-04-12T10:44:20.321Z,192.20
2023-04-12T10:45:20.368Z,180.86
2023-04-12T10:46:20.405Z,189.48
2023-04-12T10:47:20.451Z,183.44
2023-04-12T10:48:20.605Z,195.06
2023-04-12T10:49:20.629Z,187.26
2023-04-12T10:50:20.624Z,186.71
2023-04-12T10:51:22.739Z,194.36
2023-04-12T10:52:20.697Z,187.39
2023-04-12T10:53:20.821Z,192.26
2023-04-12T10:54:20.802Z,183.24
2023-04-12T10:55:20.863Z,194.60
2023-04-12T10:56:20.876Z,183.13
2023-04-12T10:57:20.913Z,191.15
2023-04-12T10:58:21.028Z,186.18
2023-04-12T10:59:21.014Z,192.07
2023-04-12T11:00:23.696Z,190.65
2023-04-12T11:01:21.182Z,189.66
2023-04-12T11:02:21.143Z,186.35
2023-04-12T11:03:21.164Z,191.40
2023-04-12T11:04:21.275Z,191.10
2023-04-12T11:05:21.240Z,185.49
2023-04-12T11:06:27.450Z,184.55
2023-04-12T11:07:22.043Z,184.86
2023-04-12T11:08:20.978Z,185.51
2023-04-12T11:09:20.985Z,187.36
2023-04-12T11:10:21.036Z,185.15
2023-04-12T11:11:21.113Z,191.10
2023-04-12T11:12:20.995Z,187.43
2023-04-12T11:13:20.987Z,185.50
2023-04-12T11:14:20.970Z,192.01
2023-04-12T11:15:20.961Z,189.84
2023-04-12T11:16:21.022Z,182.83
2023-04-12T11:17:21.104Z,181.18
2023-04-12T11:18:21.075Z,181.26
2023-04-12T11:19:20.956Z,197.63
2023-04-12T11:20:20.924Z,192.61
2023-04-12T11:21:20.940Z,181.10
2023-04-12T11:22:20.910Z,191.43
2023-04-12T11:23:20.948Z,191.83
2023-04-12T11:24:20.980Z,183.33
2023-04-12T11:25:21.001Z,179.56
2023-04-12T11:26:21.051Z,183.80
2023-04-12T11:27:21.072Z,186.85
2023-04-12T11:28:28.600Z,189.87
2023-04-12T11:29:22.105Z,189.95
2023-04-12T11:30:21.056Z,189.31
2023-04-12T11:31:21.152Z,190.16
2023-04-12T11:32:21.236Z,190.68
2023-04-12T11:33:21.115Z,192.89
2023-04-12T11:34:21.049Z,195.36
2023-04-12T11:35:21.033Z,191.80
2023-04-12T11:36:21.081Z,192.82
2023-04-12T11:37:21.031Z,193.18
2023-04-12T11:38:21.054Z,195.64
2023-04-12T11:39:21.049Z,181.61
2023-04-12T11:40:21.025Z,179.24
2023-04-12T11:41:20.992Z,186.02
2023-04-12T11:42:21.021Z,196.37
2023-04-12T11:43:21.016Z,186.84
2023-04-12T11:44:20.983Z,186.07
2023-04-12T11:45:20.991Z,186.31
2023-04-12T11:46:21.036Z,182.07
2023-04-12T11:47:21.032Z,189.27
2023-04-12T11:48:21.012Z,187.33
2023-04-12T11:49:20.971Z,189.25
2023-04-12T11:50:20.953Z,188.82
2023-04-12T11:51:20.942Z,186.33
2023-04-12T11:52:20.946Z,176.41
2023-04-12T11:53:20.940Z,182.85
2023-04-12T11:54:20.950Z,184.35
2023-04-12T11:55:20.901Z,190.77
2023-04-12T11:56:20.903Z,191.04
2023-04-12T11:57:20.943Z,190.87
2023-04-12T11:58:20.907Z,188.22
2023-04-12T11:59:20.895Z,183.94
2023-04-12T12:00:20.889Z,187.12
2023-04-12T12:01:20.904Z,186.28
2023-04-12T12:02:24.055Z,190.28
2023-04-12T12:03:21.036Z,190.24
2023-04-12T12:04:21.035Z,190.18
2023-04-12T12:05:21.074Z,197.59
2023-04-12T12:06:21.049Z,184.87
2023-04-12T12:07:21.507Z,187.33
2023-04-12T12:08:20.884Z,198.47
2023-04-12T12:09:20.857Z,194.43
2023-04-12T12:10:37.649Z,196.23
2023-04-12T12:11:21.851Z,196.48
2023-04-12T12:12:20.832Z,158.61
2023-04-12T12:13:20.813Z,139.83
2023-04-12T12:14:20.834Z,146.48
2023-04-12T12:15:20.835Z,139.06
2023-04-12T12:16:20.857Z,89.13
2023-04-12T12:17:20.822Z,72.59
2023-04-12T12:18:20.753Z,78.32
2023-04-12T12:19:20.916Z,70.87
2023-04-12T12:20:20.797Z,95.19
2023-04-12T12:21:20.775Z,79.57
2023-04-12T12:22:20.750Z,70.19
2023-04-12T12:23:20.746Z,59.03
2023-04-12T12:24:20.741Z,52.40
2023-04-12T12:25:20.789Z,34.40
2023-04-12T12:26:20.823Z,31.23
2023-04-12T12:27:20.924Z,50.13
2023-04-12T12:28:21.102Z,59.06
2023-04-12T12:29:20.975Z,60.70